Newcomb, Maryland
Current Conditions -  °F | °C
As of 4:35 AM on Sunday 26 Oct 2014 (Local Time) from KESN Reporting Station
Clear Clear  
Wind Chill: 62°   Ceiling: Unl
Heat Index: 62°   Visibility: 10mi
Dew Point: 51°   Wind: 0mph
Humidity: 68%   Direction: NA
Pressure: 29.71"   Gusts: NA
Location:  38.75°N, 76.18°W
Report Text: KESN 260835Z AUTO 00000KT 10SM CLR 17/11 A2971 RMK AO2 T01650105
Loading
Personal Weather Stations






























Interactive Weather Map
Tropical Storm Tracking
New forecast layout! Learn more

10-Day Weather Forecast

Advertisements
Track Severe Weather on mobile